createdAt,value
2019-01-08T00:00:53.645Z,989.64
2019-01-08T00:01:54.799Z,989.70
2019-01-08T00:02:45.683Z,989.70
2019-01-08T00:03:59.702Z,989.71
2019-01-08T00:04:46.862Z,989.68
2019-01-08T00:06:06.609Z,989.66
2019-01-08T00:06:44.812Z,989.64
2019-01-08T00:07:45.021Z,989.63
2019-01-08T00:08:48.221Z,989.63
2019-01-08T00:09:45.506Z,989.66
2019-01-08T00:11:08.203Z,989.59
2019-01-08T00:11:47.996Z,989.61
2019-01-08T00:12:46.050Z,989.52
2019-01-08T00:13:51.711Z,989.51
2019-01-08T00:14:48.183Z,989.46
2019-01-08T00:15:47.546Z,989.47
2019-01-08T00:16:48.186Z,989.38
2019-01-08T00:17:48.700Z,989.38
2019-01-08T00:18:54.679Z,989.31
2019-01-08T00:19:50.707Z,989.44
2019-01-08T00:20:47.303Z,989.39
2019-01-08T00:21:49.190Z,989.32
2019-01-08T00:22:48.636Z,989.29
2019-01-08T00:23:47.870Z,989.28
2019-01-08T00:24:49.680Z,989.24
2019-01-08T00:25:48.151Z,989.21
2019-01-08T00:26:48.349Z,989.20
2019-01-08T00:27:48.565Z,989.19
2019-01-08T00:28:56.679Z,989.19
2019-01-08T00:29:48.890Z,989.13
2019-01-08T00:30:56.680Z,989.17
2019-01-08T00:31:54.098Z,989.06
2019-01-08T00:32:51.217Z,989.07
2019-01-08T00:33:57.609Z,989.06
2019-01-08T00:34:50.631Z,988.96
2019-01-08T00:35:53.695Z,988.92
2019-01-08T00:36:51.691Z,988.97
2019-01-08T00:37:52.185Z,988.95
2019-01-08T00:39:15.254Z,988.91
2019-01-08T00:40:06.206Z,988.88
2019-01-08T00:40:50.882Z,988.81
2019-01-08T00:41:50.994Z,988.77
2019-01-08T00:42:59.177Z,988.81
2019-01-08T00:43:53.190Z,988.72
2019-01-08T00:46:25.642Z,988.71
2019-01-08T00:47:28.603Z,988.76
2019-01-08T00:48:25.146Z,988.74
2019-01-08T00:49:23.745Z,988.74
2019-01-08T00:50:28.463Z,988.73
2019-01-08T00:51:25.683Z,988.75
2019-01-08T00:52:24.263Z,988.69
2019-01-08T00:53:26.134Z,988.62
2019-01-08T00:54:25.155Z,988.61
2019-01-08T00:55:31.149Z,988.63
2019-01-08T00:56:27.610Z,988.62
2019-01-08T00:57:26.647Z,988.56
2019-01-08T00:58:26.102Z,988.45
2019-01-08T00:59:52.315Z,988.53
2019-01-08T01:00:26.117Z,988.58
2019-01-08T01:01:27.747Z,988.39
2019-01-08T01:02:25.845Z,988.42
2019-01-08T01:03:31.123Z,988.48
2019-01-08T01:04:28.651Z,988.48
2019-01-08T01:05:26.276Z,988.47
2019-01-08T01:06:28.093Z,988.53
2019-01-08T01:07:27.588Z,988.36
2019-01-08T01:08:42.646Z,988.37
2019-01-08T01:09:34.649Z,988.31
2019-01-08T01:10:30.887Z,988.36
2019-01-08T01:11:34.832Z,988.31
2019-01-08T01:12:28.633Z,988.28
2019-01-08T01:13:29.115Z,988.34
2019-01-08T01:14:29.631Z,988.30
2019-01-08T01:15:31.648Z,988.35
2019-01-08T01:16:27.967Z,988.33
2019-01-08T01:17:28.225Z,988.33
2019-01-08T01:18:31.609Z,988.28
2019-01-08T01:19:30.200Z,988.32
2019-01-08T01:20:30.695Z,988.32
2019-01-08T01:21:30.664Z,988.34
2019-01-08T01:22:32.663Z,988.31
2019-01-08T01:23:29.160Z,988.27
2019-01-08T01:24:29.368Z,988.29
2019-01-08T01:25:50.568Z,988.25
2019-01-08T01:26:54.655Z,988.31
2019-01-08T01:27:29.988Z,988.31
2019-01-08T01:28:34.158Z,988.34
2019-01-08T01:29:41.305Z,988.22
2019-01-08T01:30:31.619Z,988.22
2019-01-08T01:31:34.645Z,988.16
2019-01-08T01:32:32.652Z,988.04
2019-01-08T01:33:30.996Z,988.12
2019-01-08T01:34:47.144Z,988.14
2019-01-08T01:35:39.144Z,988.16
2019-01-08T01:36:47.144Z,988.11
2019-01-08T01:37:33.149Z,988.05
2019-01-08T01:38:35.664Z,988.07
2019-01-08T01:39:35.644Z,988.04
2019-01-08T01:40:31.991Z,988.06
2019-01-08T01:41:34.150Z,988.14
2019-01-08T01:42:36.175Z,988.04
2019-01-08T01:43:53.541Z,988.00
2019-01-08T01:44:40.670Z,987.92
2019-01-08T01:45:35.641Z,987.91
2019-01-08T01:46:40.686Z,987.92
2019-01-08T01:47:35.208Z,987.92
2019-01-08T01:48:33.552Z,987.91
2019-01-08T01:49:35.161Z,987.86
2019-01-08T01:50:35.651Z,987.86
2019-01-08T01:51:36.676Z,987.86
2019-01-08T01:52:35.701Z,987.86
2019-01-08T01:53:36.603Z,987.74
2019-01-08T01:54:45.227Z,987.70
2019-01-08T01:55:35.649Z,987.66
2019-01-08T01:56:38.644Z,987.58
2019-01-08T01:57:42.678Z,987.42
2019-01-08T01:58:37.175Z,987.46
2019-01-08T01:59:39.150Z,987.47
2019-01-08T02:00:37.125Z,987.49
2019-01-08T02:01:37.641Z,987.43
2019-01-08T02:02:43.896Z,987.44
2019-01-08T02:03:39.658Z,987.36
2019-01-08T02:04:41.113Z,987.36
2019-01-08T02:05:52.175Z,987.27
2019-01-08T02:06:39.148Z,987.35
2019-01-08T02:07:57.821Z,987.38
2019-01-08T02:08:38.631Z,987.44
2019-01-08T02:09:38.099Z,987.43
2019-01-08T02:10:41.215Z,987.40
2019-01-08T02:11:39.448Z,987.46
2019-01-08T02:12:40.612Z,987.38
2019-01-08T02:13:59.838Z,987.35
2019-01-08T02:14:40.019Z,987.34
2019-01-08T02:15:42.190Z,987.35
2019-01-08T02:16:46.098Z,987.36
2019-01-08T02:17:42.148Z,987.30
2019-01-08T02:18:54.648Z,987.30
2019-01-08T02:19:40.698Z,987.23
2019-01-08T02:20:40.110Z,987.25
2019-01-08T02:21:46.885Z,987.20
2019-01-08T02:22:42.124Z,987.15
2019-01-08T02:23:44.611Z,987.15
2019-01-08T02:24:44.103Z,987.09
2019-01-08T02:25:41.648Z,987.05
2019-01-08T02:27:00.978Z,987.01
2019-01-08T02:27:41.162Z,987.00
2019-01-08T02:28:48.146Z,986.92
2019-01-08T02:29:41.556Z,986.97
2019-01-08T02:30:41.649Z,986.92
2019-01-08T02:31:43.641Z,986.97
2019-01-08T02:32:42.106Z,986.99
2019-01-08T02:33:45.145Z,986.94
2019-01-08T02:34:43.596Z,986.91
2019-01-08T02:36:11.120Z,986.90
2019-01-08T02:36:44.669Z,986.94
2019-01-08T02:37:44.948Z,986.93
2019-01-08T02:38:45.611Z,986.90
2019-01-08T02:41:15.867Z,986.83
2019-01-08T02:42:15.904Z,986.83
2019-01-08T02:43:18.389Z,986.77
2019-01-08T02:44:22.386Z,986.74
2019-01-08T02:45:36.833Z,986.71
2019-01-08T02:46:17.917Z,986.72
2019-01-08T02:47:18.839Z,986.66
2019-01-08T02:48:18.830Z,986.62
2019-01-08T02:49:16.160Z,986.56
2019-01-08T02:50:17.347Z,986.52
2019-01-08T02:51:18.325Z,986.50
2019-01-08T02:52:40.355Z,986.54
2019-01-08T02:56:56.130Z,986.61
2019-01-08T02:59:09.609Z,986.65
2019-01-08T03:00:17.318Z,986.64
2019-01-08T03:00:56.813Z,986.65
2019-01-08T03:01:56.753Z,986.67
2019-01-08T03:04:44.319Z,986.63
2019-01-08T03:05:25.863Z,986.64
2019-01-08T03:06:27.534Z,986.59
2019-01-08T03:07:26.100Z,986.58
2019-01-08T03:08:41.746Z,986.55
2019-01-08T03:09:52.192Z,986.60
2019-01-08T03:10:30.211Z,986.56
2019-01-08T03:11:27.678Z,986.53
2019-01-08T03:12:30.727Z,986.52
2019-01-08T03:13:30.726Z,986.56
2019-01-08T03:14:28.731Z,986.55
2019-01-08T03:15:48.188Z,986.61
2019-01-08T03:16:28.389Z,986.65
2019-01-08T03:17:29.277Z,986.66
2019-01-08T03:18:29.230Z,986.68
2019-01-08T03:19:29.729Z,986.65
2019-01-08T03:20:31.247Z,986.64
2019-01-08T03:21:35.681Z,986.51
2019-01-08T03:22:32.227Z,986.47
2019-01-08T03:23:52.709Z,986.43
2019-01-08T03:24:30.768Z,986.36
2019-01-08T03:25:44.729Z,986.25
2019-01-08T03:26:30.736Z,986.21
2019-01-08T03:27:30.183Z,986.18
2019-01-08T03:28:31.331Z,986.16
2019-01-08T03:29:36.241Z,986.20
2019-01-08T03:30:30.767Z,986.19
2019-01-08T03:31:29.961Z,986.21
2019-01-08T03:32:31.828Z,986.20
2019-01-08T03:33:35.694Z,986.18
2019-01-08T03:34:32.277Z,986.12
2019-01-08T03:35:33.122Z,986.11
2019-01-08T03:36:32.744Z,986.14
2019-01-08T03:37:34.729Z,986.09
2019-01-08T03:38:53.760Z,986.10
2019-01-08T03:39:32.188Z,986.11
2019-01-08T03:40:54.543Z,986.06
2019-01-08T03:41:38.239Z,986.00
2019-01-08T03:42:36.283Z,985.93
2019-01-08T03:43:54.757Z,985.91
2019-01-08T03:44:34.707Z,985.91
2019-01-08T03:45:32.404Z,985.88
2019-01-08T03:46:36.261Z,985.89
2019-01-08T03:47:32.816Z,985.83
2019-01-08T03:48:35.682Z,985.80
2019-01-08T03:49:34.741Z,985.80
2019-01-08T03:50:34.382Z,985.80
2019-01-08T03:51:37.229Z,985.79
2019-01-08T03:52:37.234Z,985.79
2019-01-08T03:53:37.182Z,985.81
2019-01-08T03:54:58.895Z,985.84
2019-01-08T03:55:35.681Z,985.78
2019-01-08T03:56:36.254Z,985.81
2019-01-08T03:57:37.223Z,985.83
2019-01-08T03:59:02.732Z,985.84
2019-01-08T03:59:41.909Z,985.92
2019-01-08T04:00:57.742Z,985.87
2019-01-08T04:01:58.751Z,985.85
2019-01-08T04:03:00.999Z,985.87
2019-01-08T04:03:40.234Z,985.84
2019-01-08T04:04:40.326Z,985.84
2019-01-08T04:05:38.740Z,985.82
2019-01-08T04:06:37.070Z,985.81
2019-01-08T04:07:43.829Z,985.82
2019-01-08T04:08:36.415Z,985.86
2019-01-08T04:11:11.747Z,985.78
2019-01-08T04:12:11.402Z,985.76
2019-01-08T04:13:32.271Z,985.79
2019-01-08T04:14:11.303Z,985.81
2019-01-08T04:15:20.427Z,985.77
2019-01-08T04:16:34.769Z,985.77
2019-01-08T04:17:10.986Z,985.74
2019-01-08T04:18:14.702Z,985.70
2019-01-08T04:19:15.247Z,985.62
2019-01-08T04:20:12.583Z,985.63
2019-01-08T04:21:10.850Z,985.59
2019-01-08T04:22:12.771Z,985.59
2019-01-08T04:23:21.962Z,985.58
2019-01-08T04:24:18.751Z,985.51
2019-01-08T04:25:12.342Z,985.47
2019-01-08T04:26:15.248Z,985.54
2019-01-08T04:27:11.709Z,985.48
2019-01-08T04:28:14.712Z,985.49
2019-01-08T04:29:12.091Z,985.49
2019-01-08T04:30:14.738Z,985.41
2019-01-08T04:31:14.248Z,985.48
2019-01-08T04:32:29.212Z,985.42
2019-01-08T04:33:27.257Z,985.44
2019-01-08T04:34:15.649Z,985.42
2019-01-08T04:35:19.857Z,985.36
2019-01-08T04:36:14.751Z,985.35
2019-01-08T04:37:13.285Z,985.29
2019-01-08T04:38:13.502Z,985.30
2019-01-08T04:39:15.283Z,985.31
2019-01-08T04:40:15.249Z,985.27
2019-01-08T04:41:24.204Z,985.21
2019-01-08T04:42:26.014Z,985.22
2019-01-08T04:43:18.308Z,985.20
2019-01-08T04:44:16.710Z,985.20
2019-01-08T04:45:37.267Z,985.14
2019-01-08T04:46:15.863Z,985.18
2019-01-08T04:47:16.733Z,985.12
2019-01-08T04:48:21.806Z,985.10
2019-01-08T04:49:17.204Z,985.08
2019-01-08T04:50:17.275Z,985.06
2019-01-08T04:51:18.254Z,985.05
2019-01-08T04:52:37.827Z,985.07
2019-01-08T04:53:25.099Z,985.10
2019-01-08T04:54:17.734Z,985.14
2019-01-08T04:55:24.285Z,985.14
2019-01-08T04:56:20.257Z,985.07
2019-01-08T04:57:28.410Z,985.08
2019-01-08T04:58:21.829Z,984.98
2019-01-08T04:59:18.810Z,984.96
2019-01-08T05:05:00.881Z,984.86
2019-01-08T05:05:58.778Z,984.84
2019-01-08T05:07:16.800Z,984.78
2019-01-08T05:08:18.621Z,984.81
2019-01-08T05:08:59.001Z,984.79
2019-01-08T05:10:18.398Z,984.81
2019-01-08T05:10:57.986Z,984.85
2019-01-08T05:12:26.255Z,984.80
2019-01-08T05:12:58.546Z,984.83
2019-01-08T05:14:02.566Z,984.73
2019-01-08T05:15:34.050Z,984.81
2019-01-08T05:15:58.491Z,984.75
2019-01-08T05:17:01.714Z,984.72
2019-01-08T05:17:59.877Z,984.72
2019-01-08T05:19:04.577Z,984.70
2019-01-08T05:20:21.068Z,984.64
2019-01-08T05:21:21.371Z,984.56
2019-01-08T05:22:10.174Z,984.57
2019-01-08T05:22:58.702Z,984.60
2019-01-08T05:24:07.509Z,984.54
2019-01-08T05:25:24.064Z,984.58
2019-01-08T05:26:01.072Z,984.53
2019-01-08T05:27:00.425Z,984.49
2019-01-08T05:28:36.062Z,984.50
2019-01-08T05:29:03.502Z,984.40
2019-01-08T05:30:24.548Z,984.40
2019-01-08T05:31:01.506Z,984.37
2019-01-08T05:32:00.085Z,984.31
2019-01-08T05:33:04.052Z,984.31
2019-01-08T05:34:02.053Z,984.30
2019-01-08T05:35:01.019Z,984.27
2019-01-08T05:36:02.577Z,984.33
2019-01-08T05:37:06.006Z,984.33
2019-01-08T05:38:02.037Z,984.31
2019-01-08T05:39:17.052Z,984.35
2019-01-08T05:40:06.055Z,984.32
2019-01-08T05:42:42.035Z,984.27
2019-01-08T05:43:39.869Z,984.21
2019-01-08T05:44:58.244Z,984.27
2019-01-08T05:45:41.439Z,984.26
2019-01-08T05:48:14.553Z,984.17
2019-01-08T05:49:22.491Z,984.09
2019-01-08T05:50:08.110Z,984.12
2019-01-08T05:51:23.992Z,984.13
2019-01-08T05:55:19.404Z,983.91
2019-01-08T05:57:51.622Z,983.91
2019-01-08T06:05:39.332Z,983.67
2019-01-08T06:06:25.666Z,983.66
2019-01-08T06:07:05.249Z,983.68
2019-01-08T06:11:12.558Z,983.61
2019-01-08T06:12:16.115Z,983.51
2019-01-08T06:13:10.982Z,983.52
2019-01-08T06:14:13.546Z,983.45
2019-01-08T06:15:32.690Z,983.47
2019-01-08T06:17:46.440Z,983.50
2019-01-08T06:18:45.065Z,983.43
2019-01-08T06:19:50.048Z,983.46
2019-01-08T06:21:04.125Z,983.42
2019-01-08T06:21:44.242Z,983.41
2019-01-08T06:22:45.512Z,983.38
2019-01-08T06:23:44.574Z,983.35
2019-01-08T06:25:06.002Z,983.37
2019-01-08T06:27:18.998Z,983.24
2019-01-08T06:28:28.185Z,983.29
2019-01-08T06:29:17.891Z,983.33
2019-01-08T06:30:24.673Z,983.29
2019-01-08T06:31:33.048Z,983.24
2019-01-08T06:32:18.473Z,983.26
2019-01-08T06:33:19.956Z,983.22
2019-01-08T06:34:18.931Z,983.24
2019-01-08T06:37:07.478Z,983.26
2019-01-08T06:37:52.055Z,983.23
2019-01-08T06:38:50.585Z,983.24
2019-01-08T06:39:52.534Z,983.27
2019-01-08T06:40:58.453Z,983.26
2019-01-08T06:43:27.176Z,983.26
2019-01-08T06:44:26.659Z,983.27
2019-01-08T06:45:48.289Z,983.31
2019-01-08T06:48:10.458Z,983.33
2019-01-08T06:48:58.565Z,983.34
2019-01-08T06:50:14.662Z,983.34
2019-01-08T06:50:58.685Z,983.31
2019-01-08T06:52:02.474Z,983.31
2019-01-08T06:53:00.823Z,983.31
2019-01-08T06:54:00.829Z,983.33
2019-01-08T06:54:58.900Z,983.34
2019-01-08T06:57:37.231Z,983.34
2019-01-08T06:58:32.543Z,983.34
2019-01-08T06:59:30.573Z,983.29
2019-01-08T07:00:33.545Z,983.28
2019-01-08T07:01:54.559Z,983.31
2019-01-08T07:02:55.603Z,983.25
2019-01-08T07:03:33.133Z,983.24
2019-01-08T07:04:38.190Z,983.20
2019-01-08T07:05:38.095Z,983.29
2019-01-08T07:06:35.039Z,983.20
2019-01-08T07:07:33.632Z,983.22
2019-01-08T07:08:39.599Z,983.16
2019-01-08T07:09:36.561Z,983.13
2019-01-08T07:10:34.095Z,983.10
2019-01-08T07:11:37.091Z,983.07
2019-01-08T07:12:32.420Z,983.06
2019-01-08T07:13:35.555Z,983.04
2019-01-08T07:14:35.605Z,983.05
2019-01-08T07:15:34.606Z,983.10
2019-01-08T07:16:33.136Z,983.13
2019-01-08T07:17:33.343Z,983.13
2019-01-08T07:18:33.551Z,983.11
2019-01-08T07:21:11.814Z,983.06
2019-01-08T07:22:07.567Z,983.06
2019-01-08T07:23:29.834Z,982.98
2019-01-08T07:24:11.410Z,983.06
2019-01-08T07:25:08.887Z,983.00
2019-01-08T07:26:08.242Z,983.01
2019-01-08T07:27:07.329Z,983.03
2019-01-08T07:28:08.400Z,983.04
2019-01-08T07:29:07.767Z,983.05
2019-01-08T07:30:09.012Z,983.08
2019-01-08T07:31:09.895Z,983.07
2019-01-08T07:32:15.891Z,983.09
2019-01-08T07:33:10.443Z,983.10
2019-01-08T07:34:09.701Z,983.13
2019-01-08T07:35:16.444Z,983.14
2019-01-08T07:36:09.023Z,983.21
2019-01-08T07:37:09.263Z,983.20
2019-01-08T07:38:11.596Z,983.14
2019-01-08T07:39:09.760Z,983.13
2019-01-08T07:40:13.394Z,983.10
2019-01-08T07:41:11.416Z,983.12
2019-01-08T07:42:10.044Z,983.19
2019-01-08T07:43:14.703Z,983.15
2019-01-08T07:44:22.639Z,983.14
2019-01-08T07:45:14.392Z,983.14
2019-01-08T07:46:12.447Z,983.14
2019-01-08T07:47:18.890Z,983.16
2019-01-08T07:48:12.935Z,983.13
2019-01-08T07:49:14.866Z,983.15
2019-01-08T07:50:12.335Z,983.20
2019-01-08T07:51:14.352Z,983.17
2019-01-08T07:52:32.992Z,983.22
2019-01-08T07:53:13.423Z,983.21
2019-01-08T07:54:13.842Z,983.14
2019-01-08T07:55:14.844Z,983.18
2019-01-08T07:56:13.957Z,983.14
2019-01-08T07:57:14.370Z,983.13
2019-01-08T07:58:16.394Z,983.09
2019-01-08T07:59:20.437Z,983.07
2019-01-08T08:00:28.893Z,983.01
2019-01-08T08:01:14.887Z,983.06
2019-01-08T08:02:29.901Z,983.08
2019-01-08T08:03:16.357Z,983.04
2019-01-08T08:04:13.598Z,983.04
2019-01-08T08:05:37.355Z,983.05
2019-01-08T08:06:13.931Z,982.99
2019-01-08T08:07:17.920Z,982.96
2019-01-08T08:08:15.890Z,983.00
2019-01-08T08:09:17.351Z,982.97
2019-01-08T08:10:17.905Z,982.98
2019-01-08T08:11:16.388Z,982.91
2019-01-08T08:12:16.745Z,982.89
2019-01-08T08:13:15.286Z,982.87
2019-01-08T08:14:15.453Z,982.94
2019-01-08T08:15:15.639Z,982.92
2019-01-08T08:16:15.843Z,982.95
2019-01-08T08:17:16.094Z,982.93
2019-01-08T08:18:38.888Z,982.89
2019-01-08T08:19:16.447Z,982.80
2019-01-08T08:20:16.683Z,982.80
2019-01-08T08:21:19.063Z,982.74
2019-01-08T08:22:22.842Z,982.76
2019-01-08T08:23:20.909Z,982.78
2019-01-08T08:24:33.883Z,982.68
2019-01-08T08:25:22.373Z,982.73
2019-01-08T08:26:21.394Z,982.70
2019-01-08T08:27:19.391Z,982.73
2019-01-08T08:28:21.889Z,982.74
2019-01-08T08:29:20.892Z,982.71
2019-01-08T08:30:20.966Z,982.68
2019-01-08T08:31:19.522Z,982.68
2019-01-08T08:32:19.615Z,982.75
2019-01-08T08:33:20.786Z,982.76
2019-01-08T08:34:20.927Z,982.72
2019-01-08T08:35:19.901Z,982.79
2019-01-08T08:36:20.920Z,982.77
2019-01-08T08:37:21.390Z,982.72
2019-01-08T08:38:21.392Z,982.75
2019-01-08T08:39:20.872Z,982.71
2019-01-08T08:40:21.894Z,982.60
2019-01-08T08:41:20.084Z,982.59
2019-01-08T08:42:23.863Z,982.60
2019-01-08T08:43:36.388Z,982.50
2019-01-08T08:44:20.693Z,982.57
2019-01-08T08:45:20.778Z,982.58
2019-01-08T08:46:22.892Z,982.60
2019-01-08T08:47:21.139Z,982.59
2019-01-08T08:48:22.898Z,982.61
2019-01-08T08:49:42.480Z,982.60
2019-01-08T08:50:25.395Z,982.61
2019-01-08T08:51:26.233Z,982.57
2019-01-08T08:52:22.069Z,982.62
2019-01-08T08:53:37.891Z,982.59
2019-01-08T08:54:22.325Z,982.48
2019-01-08T08:55:25.030Z,982.49
2019-01-08T08:56:24.443Z,982.54
2019-01-08T08:57:22.846Z,982.50
2019-01-08T08:58:46.851Z,982.55
2019-01-08T08:59:24.219Z,982.49
2019-01-08T09:00:31.355Z,982.53
2019-01-08T09:01:27.386Z,982.54
2019-01-08T09:02:25.360Z,982.56
2019-01-08T09:03:26.459Z,982.47
2019-01-08T09:04:27.902Z,982.46
2019-01-08T09:05:24.111Z,982.45
2019-01-08T09:06:25.917Z,982.45
2019-01-08T09:07:24.513Z,982.35
2019-01-08T09:09:01.395Z,982.39
2019-01-08T09:09:26.922Z,982.35
2019-01-08T09:10:49.932Z,982.35
2019-01-08T09:11:32.905Z,982.31
2019-01-08T09:12:29.388Z,982.34
2019-01-08T09:14:02.398Z,982.23
2019-01-08T09:14:25.824Z,982.20
2019-01-08T09:15:26.045Z,982.25
2019-01-08T09:16:30.893Z,982.24
2019-01-08T09:17:30.450Z,982.23
2019-01-08T09:18:28.375Z,982.21
2019-01-08T09:19:27.867Z,982.23
2019-01-08T09:20:43.851Z,982.15
2019-01-08T09:21:33.898Z,982.18
2019-01-08T09:22:29.316Z,982.15
2019-01-08T09:23:27.886Z,982.13
2019-01-08T09:24:29.394Z,982.08
2019-01-08T09:25:44.884Z,982.10
2019-01-08T09:26:29.916Z,982.12
2019-01-08T09:27:50.869Z,982.16
2019-01-08T09:28:30.849Z,982.15
2019-01-08T09:29:31.834Z,982.10
2019-01-08T09:30:30.415Z,982.14
2019-01-08T09:31:30.410Z,982.10
2019-01-08T09:32:30.956Z,982.12
2019-01-08T09:33:32.053Z,982.15
2019-01-08T09:34:32.888Z,982.08
2019-01-08T09:35:30.477Z,982.04
2019-01-08T09:36:46.877Z,982.07
2019-01-08T09:37:30.895Z,982.00
2019-01-08T09:38:52.668Z,982.10
2019-01-08T09:39:30.186Z,982.02
2019-01-08T09:41:06.893Z,982.05
2019-01-08T09:41:32.871Z,982.10
2019-01-08T09:42:32.364Z,982.02
2019-01-08T09:43:32.395Z,982.00
2019-01-08T09:44:32.946Z,981.94
2019-01-08T09:45:33.867Z,981.95
2019-01-08T09:46:32.441Z,981.92
2019-01-08T09:47:31.446Z,981.90
2019-01-08T09:48:32.624Z,981.93
2019-01-08T09:49:36.273Z,981.87
2019-01-08T09:50:47.892Z,981.87
2019-01-08T09:51:35.902Z,981.92
2019-01-08T09:52:33.356Z,981.92
2019-01-08T09:53:39.393Z,981.95
2019-01-08T09:55:09.398Z,981.96
2019-01-08T09:57:08.676Z,981.97
2019-01-08T09:59:41.668Z,981.87
2019-01-08T10:00:37.498Z,981.85
2019-01-08T10:01:45.724Z,981.81
2019-01-08T10:03:03.613Z,981.83
2019-01-08T10:03:39.661Z,981.76
2019-01-08T10:04:40.971Z,981.77
2019-01-08T10:05:39.246Z,981.82
2019-01-08T10:06:40.286Z,981.75
2019-01-08T10:07:45.636Z,981.72
2019-01-08T10:08:38.977Z,981.79
2019-01-08T10:09:43.191Z,981.74
2019-01-08T10:10:55.173Z,981.72
2019-01-08T10:11:51.108Z,981.79
2019-01-08T10:12:41.656Z,981.77
2019-01-08T10:13:41.680Z,981.76
2019-01-08T10:14:42.166Z,981.79
2019-01-08T10:15:41.118Z,981.82
2019-01-08T10:16:41.482Z,981.69
2019-01-08T10:17:41.744Z,981.68
2019-01-08T10:18:42.822Z,981.65
2019-01-08T10:20:02.996Z,981.67
2019-01-08T10:20:45.146Z,981.74
2019-01-08T10:21:41.368Z,981.70
2019-01-08T10:22:43.216Z,981.75
2019-01-08T10:23:49.606Z,981.65
2019-01-08T10:24:41.954Z,981.74
2019-01-08T10:25:42.118Z,981.73
2019-01-08T10:26:44.508Z,981.66
2019-01-08T10:27:46.148Z,981.66
2019-01-08T10:43:14.419Z,981.46
2019-01-08T10:43:32.494Z,981.48
2019-01-08T10:44:32.989Z,981.43
2019-01-08T10:45:35.935Z,981.42
2019-01-08T10:46:47.482Z,981.45
2019-01-08T10:47:31.817Z,981.44
2019-01-08T10:51:41.586Z,981.37
2019-01-08T10:52:36.083Z,981.34
2019-01-08T10:53:42.227Z,981.32
2019-01-08T10:54:38.250Z,981.18
2019-01-08T10:55:58.729Z,981.22
2019-01-08T10:56:40.815Z,981.30
2019-01-08T10:57:45.007Z,981.27
2019-01-08T10:58:41.750Z,981.31
2019-01-08T11:00:00.952Z,981.26
2019-01-08T11:00:49.606Z,981.23
2019-01-08T11:01:40.768Z,981.17
2019-01-08T11:02:39.422Z,981.24
2019-01-08T11:03:41.320Z,981.29
2019-01-08T11:04:40.014Z,981.28
2019-01-08T11:05:40.364Z,981.15
2019-01-08T11:06:38.585Z,981.13
2019-01-08T11:07:39.047Z,981.12
2019-01-08T11:08:40.827Z,981.15
2019-01-08T11:09:40.376Z,981.11
2019-01-08T11:10:39.949Z,981.08
2019-01-08T11:12:00.531Z,981.07
2019-01-08T11:12:41.675Z,981.09
2019-01-08T11:13:39.883Z,981.06
2019-01-08T11:14:40.121Z,981.09
2019-01-08T11:15:48.523Z,981.14
2019-01-08T11:16:42.008Z,981.07
2019-01-08T11:17:41.746Z,981.15
2019-01-08T11:18:43.918Z,981.14
2019-01-08T11:19:42.009Z,981.10
2019-01-08T11:20:43.003Z,981.17
2019-01-08T11:21:41.347Z,981.04
2019-01-08T11:22:41.557Z,980.97
2019-01-08T11:23:42.514Z,981.07
2019-01-08T11:24:43.996Z,981.05
2019-01-08T11:25:44.096Z,981.12
2019-01-08T11:26:43.318Z,981.11
2019-01-08T11:27:44.465Z,980.93
2019-01-08T11:28:44.913Z,980.90
2019-01-08T11:29:48.006Z,980.79
2019-01-08T11:38:51.180Z,980.96
2019-01-08T11:39:33.700Z,980.96
2019-01-08T11:40:31.192Z,980.87
2019-01-08T11:41:29.773Z,980.86
2019-01-08T11:42:36.670Z,980.85
2019-01-08T11:43:32.154Z,980.85
2019-01-08T11:44:32.339Z,980.74
2019-01-08T11:45:35.264Z,980.79
2019-01-08T11:46:33.186Z,980.74
2019-01-08T11:48:06.679Z,980.73
2019-01-08T11:48:33.126Z,980.71
2019-01-08T11:49:35.371Z,980.72
2019-01-08T11:50:32.588Z,980.65
2019-01-08T11:51:33.132Z,980.70
2019-01-08T11:52:47.856Z,980.65
2019-01-08T11:53:36.628Z,980.58
2019-01-08T11:54:41.010Z,980.60
2019-01-08T11:55:32.134Z,980.57
2019-01-08T11:56:38.203Z,980.58
2019-01-08T11:57:33.147Z,980.56
2019-01-08T12:00:10.148Z,980.45
2019-01-08T12:01:08.606Z,980.50
2019-01-08T12:02:08.190Z,980.47
2019-01-08T12:03:12.394Z,980.41
2019-01-08T12:04:21.419Z,980.41
2019-01-08T12:05:09.969Z,980.40
2019-01-08T12:06:08.889Z,980.40
2019-01-08T12:07:07.355Z,980.41
2019-01-08T12:08:07.340Z,980.26
2019-01-08T12:09:09.382Z,980.24
2019-01-08T12:11:43.039Z,980.22
2019-01-08T12:12:45.665Z,980.16
2019-01-08T12:13:54.613Z,980.15
2019-01-08T12:14:39.077Z,980.20
2019-01-08T12:15:42.510Z,980.16
2019-01-08T12:16:55.069Z,980.15
2019-01-08T12:17:43.563Z,980.17
2019-01-08T12:18:40.827Z,980.16
2019-01-08T12:19:42.616Z,980.14
2019-01-08T12:20:41.076Z,980.20
2019-01-08T12:22:04.507Z,980.08
2019-01-08T12:24:16.968Z,980.12
2019-01-08T12:25:16.486Z,980.04
2019-01-08T12:26:35.666Z,980.11
2019-01-08T12:27:16.043Z,980.04
2019-01-08T12:28:17.043Z,980.00
2019-01-08T12:29:26.075Z,980.07
2019-01-08T12:30:15.592Z,980.04
2019-01-08T12:31:15.626Z,980.05
2019-01-08T12:32:16.584Z,979.99
2019-01-08T12:33:16.193Z,980.01
2019-01-08T12:34:16.141Z,980.01
2019-01-08T12:35:14.656Z,980.06
2019-01-08T12:36:17.036Z,980.01
2019-01-08T12:37:21.620Z,979.99
2019-01-08T12:38:17.591Z,979.97
2019-01-08T12:39:16.312Z,979.91
2019-01-08T12:40:17.163Z,979.92
2019-01-08T12:41:45.543Z,979.93
2019-01-08T12:42:31.616Z,979.94
2019-01-08T12:43:22.614Z,979.98
2019-01-08T12:44:32.118Z,979.97
2019-01-08T12:45:32.154Z,979.95
2019-01-08T12:46:16.999Z,979.96
2019-01-08T12:47:24.603Z,979.96
2019-01-08T12:48:44.547Z,979.85
2019-01-08T12:49:25.156Z,979.93
2019-01-08T12:50:34.053Z,980.00
2019-01-08T12:51:33.521Z,979.96
2019-01-08T12:52:21.640Z,979.95
2019-01-08T12:53:47.551Z,980.02
2019-01-08T12:54:41.088Z,980.02
2019-01-08T12:55:40.661Z,979.94
2019-01-08T12:56:39.164Z,979.97
2019-01-08T12:57:23.052Z,980.00
2019-01-08T12:58:20.046Z,979.90
2019-01-08T12:59:20.558Z,979.88
2019-01-08T13:00:19.453Z,979.91
2019-01-08T13:01:34.592Z,979.83
2019-01-08T13:02:20.046Z,979.85
2019-01-08T13:03:44.118Z,979.88
2019-01-08T13:04:27.103Z,979.85
2019-01-08T13:08:41.844Z,979.86
2019-01-08T13:09:42.808Z,979.85
2019-01-08T13:10:41.838Z,979.84
2019-01-08T13:11:48.388Z,979.85
2019-01-08T13:13:07.435Z,979.79
2019-01-08T13:14:09.370Z,979.79
2019-01-08T13:14:41.788Z,979.75
2019-01-08T13:15:53.094Z,979.73
2019-01-08T13:16:41.331Z,979.77
2019-01-08T13:17:44.351Z,979.77
2019-01-08T13:18:43.350Z,979.85
2019-01-08T13:20:02.684Z,979.82
2019-01-08T13:23:55.713Z,980.04
2019-01-08T13:24:53.103Z,979.98
2019-01-08T13:25:53.148Z,980.00
2019-01-08T13:26:51.196Z,979.93
2019-01-08T13:27:52.175Z,979.95
2019-01-08T13:28:52.687Z,980.06
2019-01-08T13:30:26.768Z,980.16
2019-01-08T13:30:55.179Z,980.20
2019-01-08T13:31:51.141Z,980.23
2019-01-08T13:32:52.156Z,980.37
2019-01-08T13:33:57.161Z,980.27
2019-01-08T13:34:53.192Z,980.33
2019-01-08T13:36:12.919Z,980.22
2019-01-08T13:37:15.817Z,980.21
2019-01-08T13:38:14.347Z,980.23
2019-01-08T13:39:18.602Z,980.19
2019-01-08T13:40:14.230Z,980.23
2019-01-08T13:41:24.938Z,980.18
2019-01-08T13:44:06.173Z,980.15
2019-01-08T13:44:25.369Z,980.23
2019-01-08T13:45:50.074Z,980.23
2019-01-08T13:47:02.611Z,980.27
2019-01-08T13:47:31.692Z,980.26
2019-01-08T13:48:27.571Z,980.13
2019-01-08T13:49:27.150Z,980.07
2019-01-08T13:50:27.349Z,980.13
2019-01-08T13:51:25.549Z,980.12
2019-01-08T13:52:29.975Z,979.96
2019-01-08T13:55:26.057Z,980.22
2019-01-08T13:56:01.999Z,980.12